Almond, Alabama
Current Conditions -  °F | °C
As of 6:55 AM on Saturday 22 Nov 2014 (Local Time) from KLGC Reporting Station
Scattered Clouds Scattered Clouds  
Wind Chill: 41°   Ceiling: Unl
Heat Index: 41°   Visibility: 10mi
Dew Point: 38°   Wind: 0mph
Humidity: 89%   Direction: NA
Pressure: 30.42"   Gusts: NA
Location:  33.1661°N, 85.5111°W
Report Text: KLGC 221255Z AUTO 00000KT 10SM SCT050 05/03 A3042 RMK AO2 T00500033
Loading
Personal Weather Stations






























Interactive Weather Map New forecast layout! Learn more

10-Day Weather Forecast

Advertisements
Track Severe Weather on mobile